San Diego Classic - Holiday Cup - 30 Mile toss

Station: 30 mile toss - T Race

Distance: 30 Miles

Release: 08-Nov-2018 10:00

Weather Release:    Arrival:

Wind at Release:     Wind at Arrival:

Temp at Release: °    Temp at Arrival: °

Lofts: 102

Birds: 366

Clocked: 361

Good Luck to Everyone!
Drops Pos Breeder Pigeon Name Color Sex Ent Arrival Speed To Win Eligible RaceAvg Speed
1 Bandido Loft - MN 0016-AU18-JP BC H 1 10:42:00.30 1256.993 00:00:00 Yes
1 Avitron Loft - CA 1505-AU18-SD DC H 1 10:42:00.30 1256.993 00:00:00 Yes
3 Mcconnell Loft - FL 10134-AU18-GHC BC H 1 10:42:00.80 1256.744 00:00:00 Lost
4 Any Given Day-Quest - TX 18082-AU18-AGD BC H 1 10:42:01.10 1256.594 00:00:01 Yes
5 Transilvania Loft - NV 0025-AU18-CFL BC H 1 10:42:01.50 1256.395 00:00:01 Yes
6 Tom Cano Family - CA 0865-AU18-SD BB H 1 10:42:01.90 1256.196 00:00:02 Yes
6 Desert Rose Loft - NV 4883-AU18-JEDD BB H 1 10:42:01.90 1256.196 00:00:02 Yes
8 Nemeth Family Loft - CA 0043-AU18-BON BBPD H 1 10:42:02.70 1255.797 00:00:02 Yes
9 Humberto Munoz - EM 27148-AU18-MEX BB H 1 10:42:03.10 1255.598 00:00:03 Yes
9 We Be She's - NV 18059-AU18-TBW 15002-15003 BB H 1 10:42:03.10 1255.598 00:00:03 Yes
11 Nemeth Family Loft - CA 0897-AU18-BON BB H 2 10:42:03.50 1255.399 00:00:03 Yes
12 A P C Loft - TX 18220-AU18-APC BB H 1 10:42:03.90 1255.200 00:00:04 Yes
13 A P C Loft - TX 18257-AU18-APC BB H 2 10:42:04.50 1254.902 00:00:04 Yes
14 Four For More 2 - CA 1832-AU18-C7 BBSP H 1 10:42:06.50 1253.909 00:00:06 Yes
15 Martha & Darwin Stork - CA 0501-AU18-RP DC H 1 10:42:07.60 1253.363 00:00:07 Yes
16 C L & Patty Gage - TX 0402-AU18-DEN BB H 1 10:42:08.10 1253.115 00:00:08 Yes
17 Utaz Team - UT 0468-AU18-SLI 933x913 BB H 1 10:42:08.20 1253.065 00:00:08 Yes
18 Franco's - CA 17857-AU18-JEDD BB H 1 10:42:09.70 1252.322 00:00:09 Yes
18 English Syndicate - UK 27611-GB18-GBE BB H 1 10:42:09.70 1252.322 00:00:09 Yes
20 Christian & Adam Gluck - CA 3734-AU18-COM BB H 1 10:42:10.10 1252.124 00:00:10 Yes
21 Mesopotamia Loft - MN 6218-AU18-ARPU BB H 1 10:42:10.80 1251.778 00:00:10 Yes
22 Hugo Avila Loft - CA 1458-AU18-SD BBWF H 1 10:42:11.20 1251.580 00:00:11 Yes
23 C P C A Syndicate - AZ 1306-AU18-DUTC GRIZ H 1 10:42:11.50 1251.432 00:00:11 Yes
24 Desert Rose Loft - NV 4869-AU18-JEDD BB H 2 10:42:12.20 1251.086 00:00:12 Yes
25 Avelino Loft - CA 8200-AU18-HAN BCSP H 1 10:42:12.60 1250.888 00:00:12 Yes
25 Lamp Post Loft - CA 18076-AU18-JEDD BBSP H 1 10:42:12.60 1250.888 00:00:12 Yes
27 Dan And Greg Coury - AZ 0805-AU18-PEGA Evc58xnwk72 BCWF H 1 10:42:13.00 1250.691 00:00:13 Yes
28 Utaz Team - UT 0424-AU18-SLI 1386x1394 BB H 2 10:42:13.70 1250.345 00:00:13 Yes
29 Barry Venn - WY 18257-AU18-VENN BCSP H 1 10:42:14.20 1250.099 00:00:14 Yes
30 Quest Syndicate - TX 18052-AU18-QS BCSP H 1 10:42:17.10 1248.670 00:00:17 Yes
31 Genesis Syndicate Loft - AZ 0502-AU18-GS BBWF H 1 10:42:18.20 1248.129 00:00:18 Yes
32 B.C. Weaver - FL 29491-AU18-ARPU BLUE CHECK HEN BC H 1 10:42:20.70 1246.900 00:00:20 Yes
33 A P C Loft - TX 18286-AU18-APC BBWF H 3 10:42:21.10 1246.704 00:00:21 Yes
34 C & D Loft - CA 0982-AU18-PAL BC H 1 10:42:22.10 1246.214 00:00:22 Yes
35 Genesis Syndicate Loft - AZ 0531-AU18-GS BBSP H 2 10:42:51.70 1231.870 00:00:51 Yes
36 Ancona Loft - CA 0110-AU18-ANCO BCSP H 1 10:42:58.40 1228.669 00:00:58 Yes
37 De La O-Lopez-Saenz - CA 0347-AU18-TCH BB H 1 10:43:03.70 1226.149 00:01:03 Yes
38 Hi-Cal Connection - CA 0804-AU18-HICA BB H 1 10:43:43.60 1207.501 00:01:43 Yes
39 Garcia & Franco - CA 0022-AU18-Y2K RSPL H 1 10:43:44.10 1207.271 00:01:44 Yes
40 Milestone Loft - CA 1034-AU18-SD 20 maga/138 DC H 1 10:43:45.40 1206.673 00:01:45 Yes
41 Sandstrom Brothers Loft - MN 0386-AU18-GJC BC H 1 10:43:50.20 1204.471 00:01:50 Yes
42 English Syndicate - UK 27615-GB18-GBE BB H 2 10:43:50.70 1204.242 00:01:50 Yes
43 Dave Shewmaker - CA 8178-AU18-SHEW BC H 1 10:43:50.80 1204.196 00:01:51 Yes
44 Flying D Loft - TX 0729-AU18-FLYD DC H 1 10:43:51.10 1204.059 00:01:51 Yes
45 Dave Dudley/Ron Moden - CO 18018-AU18-DEHE BB H 1 10:43:52.30 1203.510 00:01:52 Yes
46 Milo Garver - CA 0932-AU18-SD BB H 1 10:43:52.80 1203.282 00:01:52 Yes
47 Two-Be-Won - NV 18004-AU18-TBW 13245-16264 BBSP H 1 10:43:52.90 1203.236 00:01:53 Lost
48 - 1270-AU18-KOLV 1 10:43:53.60 1202.916 00:01:53
49 Dutch Touch International - ON 2642-AU18-OL BB H 1 10:43:54.30 1202.597 00:01:54 Lost
50 A V A Lofts - CA 1876-AU18-JEDD BB H 1 10:43:55.10 1202.231 00:01:55 Yes
51 Irish Syndicate - AZ 0222-AU18-IS BB H 1 10:43:55.40 1202.095 00:01:55 Lost
52 Anthony Cuba - CA 2381-AU18-HP BBSP H 1 10:43:57.20 1201.274 00:01:57 Yes
53 Tim Brandon - CA 0449-AU18-OCF BC H 1 10:43:57.70 1201.046 00:01:57 Yes
54 Two-Be-Won - NV 18098-AU18-TBW 13062-11154 BB H 2 10:43:58.80 1200.546 00:01:58 Lost
55 John Karnofel - CA 0884-AU18-KFL Ms Dixie BB H 1 10:43:59.30 1200.318 00:01:59 Yes
56 Irma & Gene & Eddie - CA 0516-AU18-VIP BBSP H 1 10:43:59.60 1200.182 00:01:59 Yes
57 Nemeth Family Loft - CA 0839-AU18-BON DC H 3 10:44:00.20 1199.909 00:02:00 Yes
58 Carney & Hassan - CT 0910-IF18-CC BC H 1 10:44:00.50 1199.773 00:02:00 Yes
59 Marion Taloi 3 - OR 30937-AU18-AA BBSP H 1 10:44:02.10 1199.046 00:02:02 Lost
60 Mcconnell Loft - FL 10129-AU18-GHC BB H 2 10:44:02.80 1198.729 00:02:02 Yes
61 Utaz Team - UT 1316-AU18-DUTC 9489-1307 BC H 3 10:44:03.20 1198.547 00:02:03 Yes
62 El Dorado Lofts Canada - BC 11647-CU18-CRPU RC H 1 10:44:04.00 1198.185 00:02:04 Yes
63 Bryan & Domenick - PA 0371-AU18-MAIE SIL H 1 10:44:09.30 1195.788 00:02:09 Yes
64 Irish Syndicate - AZ 0195-IF18-IS BCWF H 2 10:44:13.20 1194.030 00:02:13 Lost
65 Two-Be-Won - NV 18028-AU18-TBW 15003-15002 BB H 3 10:44:14.60 1193.400 00:02:14 Yes
66 Van-Robins - CA 0807-AU18-OCF BC H 1 10:44:18.50 1191.649 00:02:18 Yes
67 Duane Gragg - CA 0815-AU18-KEYH BBSP H 1 10:44:20.00 1190.977 00:02:20 Yes
68 Christian & Adam Gluck - CA 3766-AU18-COM BBWF H 2 10:44:20.50 1190.754 00:02:20 Yes
69 C & D Loft - CA 0978-AU18-PAL BCWF H 2 10:44:21.40 1190.351 00:02:21 Yes
70 Tim Brandon - CA 0361-AU18-LAP BB H 2 10:44:21.70 1190.217 00:02:21 Yes
71 John Karnofel - CA 0885-AU18-KFL Ms Honeybee BB H 2 10:44:25.20 1188.654 00:02:25 Yes
72 C P C A Syndicate - AZ 0567-AU18-SLI BB H 2 10:44:34.10 1184.698 00:02:34 Yes
73 Tom Cano Family - CA 0829-AU18-SD BB H 2 10:45:03.40 1171.858 00:03:03 Yes
74 Kfly Racing Pigeon Loft - ID 9400-AU18-WII Aarricobeele DC H 1 10:45:30.00 1160.440 00:03:30 Yes
75 D & D Syn - ON 60048-AU18-ARPU BB H 1 10:45:54.80 1149.993 00:03:54 Yes
76 Steve Lance - CA 6221-AU18-COM BB H 1 10:46:04.80 1145.833 00:04:05 Yes
77 Christian & Adam Gluck - CA 3753-AU18-COM BCSP H 3 10:46:07.80 1144.591 00:04:08 Yes
78 Dehesa Valley Lofts - CA 18032-AU18-DEHE BB H 1 10:46:11.70 1142.981 00:04:11 Lost
79 Arrowhead Loft - CA 1455-AU18-SD BBSP H 1 10:46:12.20 1142.775 00:04:12 Yes
80 Hawaiian Express - CA 0015-AU18-HE BCWF H 1 10:46:17.20 1140.717 00:04:17 Yes
81 Stephen Brothers - FL 0886-AU18-HICA BB H 1 10:46:25.60 1137.277 00:04:25 Yes
82 Nanez Family Lofts - WI 8476-AU18-NANE BB H 1 10:46:26.70 1136.829 00:04:26 Yes
83 Bill Wieland Loft - BC 1821-CU18-WCW MLY H 1 10:46:31.40 1134.914 00:04:31 Yes
84 Missiles Castro - AZ 4324-AU18-MISS BCWF H 1 10:46:36.00 1133.047 00:04:36 Yes
85 Flying D Loft - TX 0643-AU18-FLYD BBSP H 2 10:46:43.50 1130.016 00:04:43 Yes
86 English Syndicate - UK 18071-AU18-MET DC H 3 10:46:46.50 1128.808 00:04:46 Yes
87 Christian & Adam Gluck - CA 3774-AU18-COM BB H 4 10:47:17.50 1116.476 00:05:17 Yes
88 Dan And Greg Coury - AZ 0201-AU18-DUTC 328x3550 BB H 2 10:47:21.60 1114.865 00:05:21 Yes
89 Utaz Team - UT 0463-AU18-SLI 6531x942 BC H 4 10:47:22.90 1114.355 00:05:23 Yes
90 Los Barneros - CA 0731-AU18-SEL BC H 1 10:47:27.60 1112.516 00:05:27 Yes
91 Christian & Adam Gluck - CA 3765-AU18-COM BB H 5 10:47:34.90 1109.671 00:05:35 Yes
92 Barry Venn - WY 18267-AU18-VENN DC H 2 10:47:38.30 1108.351 00:05:38 Yes
93 Reid Racing Pigeons - CA 3183-AU18-HP RC H 1 10:47:48.00 1104.603 00:05:48 Yes
94 Rick Barker - CA 0279-AU18-VIP BBPD H 1 10:47:48.50 1104.410 00:05:48 Yes
95 George Macaluso - CA 19333-AU18-JEDD BB H 1 10:47:48.80 1104.294 00:05:49 Yes
96 Reid Racing Pigeons - CA 3180-AU18-HP BB H 2 10:47:57.30 1101.032 00:05:57 Yes
97 Hi-Cal Connection - CA 0362-AU18-SD BB H 2 10:47:58.60 1100.535 00:05:58 Yes
98 Mcknight & Mellinger - CA 0795-AU18-JEDD "Jimmy's Queen" BB H 1 10:47:59.20 1100.306 00:05:59 Yes
99 Hi-Cal Connection - CA 0893-AU18-HICA BC H 3 10:48:04.40 1098.322 00:06:04 Yes
100 Barry Venn - WY 18222-AU18-VENN RED H 3 10:48:05.20 1098.017 00:06:05 Yes

There are 342 bird records

Note: These Race Results are unofficial and subject to change until verified by the Race Committee and declared final.